GB-0511 weather

CLOSED RNAS Ford
Ford, England, United Kingdom

Public forecast

Using degrees Celsius for public forecast. Weather courtesy of forecast.io.

Closest aviation weather report (METAR) to RNAS Ford

Closest report is Shoreham Airport, 11.2 nm (20.7 km) E. Retrieved 2020/07/02 13:20 UTC (15 seconds ago):

EGKA 021320Z 23018G28KT 9999 FEW019CB 18/14 Q1012

Closest aviation forecast (TAF) to RNAS Ford

Forecast is more than 12 hours old.

Closest forecast is Shoreham Airport, 11.2 nm (20.7 km) E. Retrieved 2016/03/02 12:00 UTC (4 years ago):

TAF EGKA 021104Z 0212/0221 25015G25KT 9999 SCT020 TEMPO 0212/0216 25025G38KT 5000 SHRA BKN012CB PROB30 TEMPO 0212/0215 2500 +SHGS +SHRASN TEMPO 0216/0221 29025G35KT TEMPO 0218/0221 BKN014